sensor_id;sensor_type;location;lat;lon;timestamp;pressure;altitude;pressure_sealevel;temperature;humidity
61571;BME280;47463;49.884;10.010;2022-11-11T00:00:01;103290.00000000001;;;5.9;89
61571;BME280;47463;49.884;10.010;2022-11-11T00:05:01;103290.00000000001;;;6;89
61571;BME280;47463;49.884;10.010;2022-11-11T00:10:01;103280;;;6.5;89
61571;BME280;47463;49.884;10.010;2022-11-11T00:15:01;103280;;;6.4;89
61571;BME280;47463;49.884;10.010;2022-11-11T00:20:01;103280;;;6.4;89
61571;BME280;47463;49.884;10.010;2022-11-11T00:25:01;103280;;;6.6;89
61571;BME280;47463;49.884;10.010;2022-11-11T00:30:01;103280;;;6.6;89
61571;BME280;47463;49.884;10.010;2022-11-11T00:35:01;103290.00000000001;;;6.5;89
61571;BME280;47463;49.884;10.010;2022-11-11T00:40:01;103300;;;5.9;88
61571;BME280;47463;49.884;10.010;2022-11-11T00:45:01;103309.99999999999;;;5.8;88
61571;BME280;47463;49.884;10.010;2022-11-11T00:50:01;103320;;;5.4;88
61571;BME280;47463;49.884;10.010;2022-11-11T00:55:01;103330;;;5.1;88
61571;BME280;47463;49.884;10.010;2022-11-11T01:00:01;103330;;;5;88
61571;BME280;47463;49.884;10.010;2022-11-11T01:05:01;103340.00000000001;;;5.1;88
61571;BME280;47463;49.884;10.010;2022-11-11T01:10:01;103340.00000000001;;;5;89
61571;BME280;47463;49.884;10.010;2022-11-11T01:15:01;103340.00000000001;;;4.7;89
61571;BME280;47463;49.884;10.010;2022-11-11T01:20:01;103340.00000000001;;;4.3;88
61571;BME280;47463;49.884;10.010;2022-11-11T01:25:01;103350;;;4.1;88
61571;BME280;47463;49.884;10.010;2022-11-11T01:30:01;103350;;;4;88
61571;BME280;47463;49.884;10.010;2022-11-11T01:35:01;103350;;;3.9;89
61571;BME280;47463;49.884;10.010;2022-11-11T01:40:01;103350;;;4;89
61571;BME280;47463;49.884;10.010;2022-11-11T01:45:01;103359.99999999999;;;3.9;89
61571;BME280;47463;49.884;10.010;2022-11-11T01:50:01;103359.99999999999;;;4;89
61571;BME280;47463;49.884;10.010;2022-11-11T01:55:01;103370;;;4.1;89
61571;BME280;47463;49.884;10.010;2022-11-11T02:00:02;103359.99999999999;;;4;89
61571;BME280;47463;49.884;10.010;2022-11-11T02:05:01;103370;;;3.9;89
61571;BME280;47463;49.884;10.010;2022-11-11T02:10:01;103370;;;3.9;89
61571;BME280;47463;49.884;10.010;2022-11-11T02:15:01;103350;;;3.9;89
61571;BME280;47463;49.884;10.010;2022-11-11T02:20:02;103330;;;4;89
61571;BME280;47463;49.884;10.010;2022-11-11T02:25:01;103350;;;3.9;89
61571;BME280;47463;49.884;10.010;2022-11-11T02:30:01;103370;;;4.1;89
61571;BME280;47463;49.884;10.010;2022-11-11T02:35:01;103359.99999999999;;;4.1;89
61571;BME280;47463;49.884;10.010;2022-11-11T02:40:01;103370;;;4.1;89
61571;BME280;47463;49.884;10.010;2022-11-11T02:45:01;103359.99999999999;;;4.1;89
61571;BME280;47463;49.884;10.010;2022-11-11T02:50:01;103359.99999999999;;;4;89
61571;BME280;47463;49.884;10.010;2022-11-11T02:55:01;103359.99999999999;;;4;89
61571;BME280;47463;49.884;10.010;2022-11-11T03:00:01;103359.99999999999;;;4.1;89
61571;BME280;47463;49.884;10.010;2022-11-11T03:05:01;103350;;;4.2;89
61571;BME280;47463;49.884;10.010;2022-11-11T03:10:01;103340.00000000001;;;4.2;90
61571;BME280;47463;49.884;10.010;2022-11-11T03:15:01;103330;;;4;90
61571;BME280;47463;49.884;10.010;2022-11-11T03:20:01;103350;;;3.8;90
61571;BME280;47463;49.884;10.010;2022-11-11T03:25:01;103350;;;4;90
61571;BME280;47463;49.884;10.010;2022-11-11T03:30:01;103359.99999999999;;;4;90
61571;BME280;47463;49.884;10.010;2022-11-11T03:35:01;103370;;;4;90
61571;BME280;47463;49.884;10.010;2022-11-11T03:40:01;103370;;;4;90
61571;BME280;47463;49.884;10.010;2022-11-11T03:45:01;103380;;;4.2;90
61571;BME280;47463;49.884;10.010;2022-11-11T03:50:01;103400;;;4.2;90
61571;BME280;47463;49.884;10.010;2022-11-11T03:55:01;103390.00000000001;;;4;90
61571;BME280;47463;49.884;10.010;2022-11-11T04:00:01;103380;;;3.8;90
61571;BME280;47463;49.884;10.010;2022-11-11T04:05:01;103380;;;3.6;90
61571;BME280;47463;49.884;10.010;2022-11-11T04:10:01;103400;;;3.6;90
61571;BME280;47463;49.884;10.010;2022-11-11T04:15:01;103420;;;3.5;90
61571;BME280;47463;49.884;10.010;2022-11-11T04:20:01;103409.99999999999;;;3.4;90
61571;BME280;47463;49.884;10.010;2022-11-11T04:25:01;103420;;;3.3;90
61571;BME280;47463;49.884;10.010;2022-11-11T04:30:01;103430;;;3.4;90
61571;BME280;47463;49.884;10.010;2022-11-11T04:35:01;103430;;;3.3;90
61571;BME280;47463;49.884;10.010;2022-11-11T04:40:01;103440.00000000001;;;3.3;90
61571;BME280;47463;49.884;10.010;2022-11-11T04:45:01;103440.00000000001;;;3.2;90
61571;BME280;47463;49.884;10.010;2022-11-11T04:50:01;103440.00000000001;;;3.1;90
61571;BME280;47463;49.884;10.010;2022-11-11T04:55:01;103440.00000000001;;;3;90
61571;BME280;47463;49.884;10.010;2022-11-11T05:00:01;103440.00000000001;;;3;90
61571;BME280;47463;49.884;10.010;2022-11-11T05:05:01;103440.00000000001;;;2.7;90
61571;BME280;47463;49.884;10.010;2022-11-11T05:10:01;103440.00000000001;;;2.4;90
61571;BME280;47463;49.884;10.010;2022-11-11T05:15:01;103440.00000000001;;;2;90
61571;BME280;47463;49.884;10.010;2022-11-11T05:20:01;103440.00000000001;;;1.9;90
61571;BME280;47463;49.884;10.010;2022-11-11T05:25:01;103440.00000000001;;;2;90
61571;BME280;47463;49.884;10.010;2022-11-11T05:30:01;103440.00000000001;;;1.9;90
61571;BME280;47463;49.884;10.010;2022-11-11T05:35:01;103440.00000000001;;;1.9;90
61571;BME280;47463;49.884;10.010;2022-11-11T05:40:01;103440.00000000001;;;1.9;90
61571;BME280;47463;49.884;10.010;2022-11-11T05:45:01;103450;;;1.9;90
61571;BME280;47463;49.884;10.010;2022-11-11T05:50:01;103450;;;1.9;90
61571;BME280;47463;49.884;10.010;2022-11-11T05:55:01;103459.99999999999;;;1.9;90
61571;BME280;47463;49.884;10.010;2022-11-11T06:00:01;103459.99999999999;;;2;90
61571;BME280;47463;49.884;10.010;2022-11-11T06:05:01;103470;;;2;90
61571;BME280;47463;49.884;10.010;2022-11-11T06:10:01;103470;;;2.1;90
61571;BME280;47463;49.884;10.010;2022-11-11T06:15:01;103480;;;2.2;90
61571;BME280;47463;49.884;10.010;2022-11-11T06:20:01;103480;;;2.3;90
61571;BME280;47463;49.884;10.010;2022-11-11T06:25:01;103480;;;2.3;90
61571;BME280;47463;49.884;10.010;2022-11-11T06:30:01;103480;;;2.3;90
61571;BME280;47463;49.884;10.010;2022-11-11T06:35:01;103480;;;2.3;90
61571;BME280;47463;49.884;10.010;2022-11-11T06:40:01;103490.00000000001;;;2.4;90
61571;BME280;47463;49.884;10.010;2022-11-11T06:45:01;103490.00000000001;;;2.4;90
61571;BME280;47463;49.884;10.010;2022-11-11T06:50:01;103500;;;2.2;90
61571;BME280;47463;49.884;10.010;2022-11-11T06:55:01;103509.99999999999;;;2.1;90
61571;BME280;47463;49.884;10.010;2022-11-11T07:00:01;103520;;;2.1;90
61571;BME280;47463;49.884;10.010;2022-11-11T07:05:01;103520;;;2.1;90
61571;BME280;47463;49.884;10.010;2022-11-11T07:10:01;103509.99999999999;;;2.2;90
61571;BME280;47463;49.884;10.010;2022-11-11T07:15:01;103509.99999999999;;;2.3;90
61571;BME280;47463;49.884;10.010;2022-11-11T07:20:01;103509.99999999999;;;2.3;90
61571;BME280;47463;49.884;10.010;2022-11-11T07:25:01;103509.99999999999;;;2.8;90
61571;BME280;47463;49.884;10.010;2022-11-11T07:30:01;103530;;;2.8;90
61571;BME280;47463;49.884;10.010;2022-11-11T07:35:01;103530;;;2.6;90
61571;BME280;47463;49.884;10.010;2022-11-11T07:40:01;103530;;;2.6;90
61571;BME280;47463;49.884;10.010;2022-11-11T07:45:01;103530;;;2.6;90
61571;BME280;47463;49.884;10.010;2022-11-11T07:50:01;103540.00000000001;;;2.8;90
61571;BME280;47463;49.884;10.010;2022-11-11T07:55:01;103550;;;2.9;90
61571;BME280;47463;49.884;10.010;2022-11-11T08:00:01;103540.00000000001;;;3.1;90
61571;BME280;47463;49.884;10.010;2022-11-11T08:05:01;103540.00000000001;;;3.2;90
61571;BME280;47463;49.884;10.010;2022-11-11T08:10:01;103550;;;3.2;90
61571;BME280;47463;49.884;10.010;2022-11-11T08:15:01;103550;;;3.4;90
61571;BME280;47463;49.884;10.010;2022-11-11T08:20:01;103540.00000000001;;;3.6;90
61571;BME280;47463;49.884;10.010;2022-11-11T08:25:01;103550;;;3.9;90
61571;BME280;47463;49.884;10.010;2022-11-11T08:30:01;103550;;;4.2;90
61571;BME280;47463;49.884;10.010;2022-11-11T08:35:01;103540.00000000001;;;4.2;90
61571;BME280;47463;49.884;10.010;2022-11-11T08:40:01;103540.00000000001;;;4.3;90
61571;BME280;47463;49.884;10.010;2022-11-11T08:45:01;103550;;;4.3;90
61571;BME280;47463;49.884;10.010;2022-11-11T08:50:01;103540.00000000001;;;4.8;90
61571;BME280;47463;49.884;10.010;2022-11-11T08:55:01;103540.00000000001;;;4.8;90
61571;BME280;47463;49.884;10.010;2022-11-11T09:00:01;103550;;;4.8;90
61571;BME280;47463;49.884;10.010;2022-11-11T09:05:01;103559.99999999999;;;4.8;90
61571;BME280;47463;49.884;10.010;2022-11-11T09:10:01;103559.99999999999;;;4.5;90
61571;BME280;47463;49.884;10.010;2022-11-11T09:15:01;103570;;;4.6;90
61571;BME280;47463;49.884;10.010;2022-11-11T09:20:01;103570;;;4.7;90
61571;BME280;47463;49.884;10.010;2022-11-11T09:25:01;103570;;;4.9;90
61571;BME280;47463;49.884;10.010;2022-11-11T09:30:01;103580;;;5;90
61571;BME280;47463;49.884;10.010;2022-11-11T09:35:01;103600;;;5.1;90
61571;BME280;47463;49.884;10.010;2022-11-11T09:40:01;103600;;;5.1;90
61571;BME280;47463;49.884;10.010;2022-11-11T09:45:05;103600;;;5.2;90
61571;BME280;47463;49.884;10.010;2022-11-11T09:50:01;103600;;;5.2;90
61571;BME280;47463;49.884;10.010;2022-11-11T09:55:01;103600;;;5.1;90
61571;BME280;47463;49.884;10.010;2022-11-11T10:00:01;103600;;;5.1;90
61571;BME280;47463;49.884;10.010;2022-11-11T10:05:02;103600;;;5.2;90
61571;BME280;47463;49.884;10.010;2022-11-11T10:10:03;103600;;;5.3;90
61571;BME280;47463;49.884;10.010;2022-11-11T10:15:01;103590.00000000001;;;5.5;89
61571;BME280;47463;49.884;10.010;2022-11-11T10:20:03;103590.00000000001;;;5.8;89
61571;BME280;47463;49.884;10.010;2022-11-11T10:25:05;103590.00000000001;;;5.6;89
61571;BME280;47463;49.884;10.010;2022-11-11T10:30:03;103580;;;6;89
61571;BME280;47463;49.884;10.010;2022-11-11T10:35:04;103580;;;6.1;89
61571;BME280;47463;49.884;10.010;2022-11-11T10:40:02;103580;;;6.2;89
61571;BME280;47463;49.884;10.010;2022-11-11T10:45:01;103590.00000000001;;;6.3;89
61571;BME280;47463;49.884;10.010;2022-11-11T10:50:01;103580;;;6.1;89
61571;BME280;47463;49.884;10.010;2022-11-11T10:55:01;103580;;;6.4;89
61571;BME280;47463;49.884;10.010;2022-11-11T11:00:02;103590.00000000001;;;6.4;89
61571;BME280;47463;49.884;10.010;2022-11-11T11:05:02;103590.00000000001;;;6.6;89
61571;BME280;47463;49.884;10.010;2022-11-11T11:10:01;103590.00000000001;;;6.6;89
61571;BME280;47463;49.884;10.010;2022-11-11T11:15:01;103590.00000000001;;;6.3;89
61571;BME280;47463;49.884;10.010;2022-11-11T11:20:10;103590.00000000001;;;6.2;89
61571;BME280;47463;49.884;10.010;2022-11-11T11:25:08;103600;;;6.1;89
61571;BME280;47463;49.884;10.010;2022-11-11T11:30:08;103590.00000000001;;;6.3;89
61571;BME280;47463;49.884;10.010;2022-11-11T11:35:01;103600;;;6.5;89
61571;BME280;47463;49.884;10.010;2022-11-11T11:40:02;103609.99999999999;;;6.6;89
61571;BME280;47463;49.884;10.010;2022-11-11T11:45:32;103609.99999999999;;;6.4;89
61571;BME280;47463;49.884;10.010;2022-11-11T11:50:07;103600;;;6.5;89
61571;BME280;47463;49.884;10.010;2022-11-11T11:55:02;103590.00000000001;;;6.6;89
61571;BME280;47463;49.884;10.010;2022-11-11T12:00:02;103580;;;6.7;89
61571;BME280;47463;49.884;10.010;2022-11-11T12:05:02;103580;;;6.8;89
61571;BME280;47463;49.884;10.010;2022-11-11T12:10:02;103570;;;7;89
61571;BME280;47463;49.884;10.010;2022-11-11T12:15:03;103580;;;7.1;89
61571;BME280;47463;49.884;10.010;2022-11-11T12:20:03;103559.99999999999;;;7;89
61571;BME280;47463;49.884;10.010;2022-11-11T12:25:01;103570;;;7.2;89
61571;BME280;47463;49.884;10.010;2022-11-11T12:30:02;103550;;;7.3;89
61571;BME280;47463;49.884;10.010;2022-11-11T12:35:05;103570;;;7.3;88
61571;BME280;47463;49.884;10.010;2022-11-11T12:40:05;103559.99999999999;;;7.1;88
61571;BME280;47463;49.884;10.010;2022-11-11T12:45:02;103559.99999999999;;;7.3;88
61571;BME280;47463;49.884;10.010;2022-11-11T12:50:04;103559.99999999999;;;7.3;88
61571;BME280;47463;49.884;10.010;2022-11-11T12:55:05;103550;;;7.4;88
61571;BME280;47463;49.884;10.010;2022-11-11T13:00:03;103550;;;7.4;88
61571;BME280;47463;49.884;10.010;2022-11-11T13:05:03;103550;;;7.8;88
61571;BME280;47463;49.884;10.010;2022-11-11T13:10:02;103540.00000000001;;;8.1;88
61571;BME280;47463;49.884;10.010;2022-11-11T13:15:02;103540.00000000001;;;8.2;87
61571;BME280;47463;49.884;10.010;2022-11-11T13:20:02;103540.00000000001;;;8.1;87
61571;BME280;47463;49.884;10.010;2022-11-11T13:25:02;103540.00000000001;;;8.1;87
61571;BME280;47463;49.884;10.010;2022-11-11T13:30:03;103540.00000000001;;;8.4;86
61571;BME280;47463;49.884;10.010;2022-11-11T13:35:01;103530;;;8.6;86
61571;BME280;47463;49.884;10.010;2022-11-11T13:40:02;103540.00000000001;;;8.7;86
61571;BME280;47463;49.884;10.010;2022-11-11T13:45:01;103550;;;8.7;86
61571;BME280;47463;49.884;10.010;2022-11-11T13:50:02;103540.00000000001;;;8.6;85
61571;BME280;47463;49.884;10.010;2022-11-11T13:55:01;103540.00000000001;;;8.6;85
61571;BME280;47463;49.884;10.010;2022-11-11T14:00:02;103530;;;8.9;85
61571;BME280;47463;49.884;10.010;2022-11-11T14:05:17;103530;;;8.9;85
61571;BME280;47463;49.884;10.010;2022-11-11T14:10:01;103540.00000000001;;;8.7;85
61571;BME280;47463;49.884;10.010;2022-11-11T14:15:01;103540.00000000001;;;8.9;85
61571;BME280;47463;49.884;10.010;2022-11-11T14:20:33;103530;;;8.9;85
61571;BME280;47463;49.884;10.010;2022-11-11T14:25:09;103520;;;9.4;85
61571;BME280;47463;49.884;10.010;2022-11-11T14:30:01;103520;;;9.4;85
61571;BME280;47463;49.884;10.010;2022-11-11T14:35:05;103520;;;9.6;84
61571;BME280;47463;49.884;10.010;2022-11-11T14:40:01;103509.99999999999;;;9.4;83
61571;BME280;47463;49.884;10.010;2022-11-11T14:45:01;103509.99999999999;;;9.3;84
61571;BME280;47463;49.884;10.010;2022-11-11T14:50:01;103509.99999999999;;;9.1;84
61571;BME280;47463;49.884;10.010;2022-11-11T14:55:17;103500;;;8.9;84
61571;BME280;47463;49.884;10.010;2022-11-11T15:00:02;103500;;;8.9;85
61571;BME280;47463;49.884;10.010;2022-11-11T15:05:01;103509.99999999999;;;8.8;85
61571;BME280;47463;49.884;10.010;2022-11-11T15:10:03;103509.99999999999;;;8.7;85
61571;BME280;47463;49.884;10.010;2022-11-11T15:15:02;103509.99999999999;;;8.5;85
61571;BME280;47463;49.884;10.010;2022-11-11T15:20:06;103509.99999999999;;;8.4;85
61571;BME280;47463;49.884;10.010;2022-11-11T15:25:10;103509.99999999999;;;8.2;85
61571;BME280;47463;49.884;10.010;2022-11-11T15:30:08;103509.99999999999;;;8;85
61571;BME280;47463;49.884;10.010;2022-11-11T15:35:03;103509.99999999999;;;7.7;86
61571;BME280;47463;49.884;10.010;2022-11-11T15:40:01;103509.99999999999;;;7.4;86
61571;BME280;47463;49.884;10.010;2022-11-11T15:45:01;103500;;;7.3;87
61571;BME280;47463;49.884;10.010;2022-11-11T15:50:01;103509.99999999999;;;7.2;87
61571;BME280;47463;49.884;10.010;2022-11-11T15:55:21;103509.99999999999;;;7;87
61571;BME280;47463;49.884;10.010;2022-11-11T16:00:02;103509.99999999999;;;6.9;87
61571;BME280;47463;49.884;10.010;2022-11-11T16:05:02;103509.99999999999;;;6.8;87
61571;BME280;47463;49.884;10.010;2022-11-11T16:10:04;103509.99999999999;;;6.7;88
61571;BME280;47463;49.884;10.010;2022-11-11T16:15:01;103509.99999999999;;;6.5;88
61571;BME280;47463;49.884;10.010;2022-11-11T16:20:01;103500;;;6.4;88
61571;BME280;47463;49.884;10.010;2022-11-11T16:25:01;103500;;;6.2;88
61571;BME280;47463;49.884;10.010;2022-11-11T16:30:13;103500;;;6.2;88
61571;BME280;47463;49.884;10.010;2022-11-11T16:35:01;103500;;;6.1;88
61571;BME280;47463;49.884;10.010;2022-11-11T16:40:23;103500;;;6;88
61571;BME280;47463;49.884;10.010;2022-11-11T16:45:01;103509.99999999999;;;6;88
61571;BME280;47463;49.884;10.010;2022-11-11T16:50:01;103509.99999999999;;;6;88
61571;BME280;47463;49.884;10.010;2022-11-11T16:55:01;103509.99999999999;;;6;88
61571;BME280;47463;49.884;10.010;2022-11-11T17:00:02;103500;;;5.9;88
61571;BME280;47463;49.884;10.010;2022-11-11T17:05:01;103500;;;6;88
61571;BME280;47463;49.884;10.010;2022-11-11T17:10:09;103500;;;5.8;88
61571;BME280;47463;49.884;10.010;2022-11-11T17:15:01;103500;;;5.8;88
61571;BME280;47463;49.884;10.010;2022-11-11T17:20:01;103500;;;5.8;88
61571;BME280;47463;49.884;10.010;2022-11-11T17:25:01;103500;;;6;88
61571;BME280;47463;49.884;10.010;2022-11-11T17:30:01;103500;;;6;88
61571;BME280;47463;49.884;10.010;2022-11-11T17:35:01;103500;;;6;88
61571;BME280;47463;49.884;10.010;2022-11-11T17:40:01;103500;;;5.9;88
61571;BME280;47463;49.884;10.010;2022-11-11T17:45:01;103509.99999999999;;;5.7;88
61571;BME280;47463;49.884;10.010;2022-11-11T17:50:01;103500;;;5.5;88
61571;BME280;47463;49.884;10.010;2022-11-11T17:55:01;103509.99999999999;;;5.4;88
61571;BME280;47463;49.884;10.010;2022-11-11T18:00:01;103520;;;5.7;89
61571;BME280;47463;49.884;10.010;2022-11-11T18:05:01;103520;;;5.7;89
61571;BME280;47463;49.884;10.010;2022-11-11T18:10:01;103520;;;5.8;89
61571;BME280;47463;49.884;10.010;2022-11-11T18:15:01;103530;;;5.8;89
61571;BME280;47463;49.884;10.010;2022-11-11T18:20:01;103530;;;5.7;89
61571;BME280;47463;49.884;10.010;2022-11-11T18:25:01;103530;;;5.9;89
61571;BME280;47463;49.884;10.010;2022-11-11T18:30:01;103530;;;6.1;89
61571;BME280;47463;49.884;10.010;2022-11-11T18:35:01;103530;;;5.8;89
61571;BME280;47463;49.884;10.010;2022-11-11T18:40:01;103509.99999999999;;;5.5;89
61571;BME280;47463;49.884;10.010;2022-11-11T18:45:01;103520;;;5.3;89
61571;BME280;47463;49.884;10.010;2022-11-11T18:50:01;103520;;;5.2;89
61571;BME280;47463;49.884;10.010;2022-11-11T18:55:01;103520;;;5;89
61571;BME280;47463;49.884;10.010;2022-11-11T19:00:01;103520;;;4.8;89
61571;BME280;47463;49.884;10.010;2022-11-11T19:05:01;103520;;;4.7;89
61571;BME280;47463;49.884;10.010;2022-11-11T19:10:01;103520;;;4.6;89
61571;BME280;47463;49.884;10.010;2022-11-11T19:15:01;103530;;;4.6;89
61571;BME280;47463;49.884;10.010;2022-11-11T19:20:01;103530;;;4.7;89
61571;BME280;47463;49.884;10.010;2022-11-11T19:25:01;103520;;;4.7;89
61571;BME280;47463;49.884;10.010;2022-11-11T19:30:01;103520;;;4.6;89
61571;BME280;47463;49.884;10.010;2022-11-11T19:35:01;103520;;;4.5;89
61571;BME280;47463;49.884;10.010;2022-11-11T19:40:01;103520;;;4.5;89
61571;BME280;47463;49.884;10.010;2022-11-11T19:45:01;103530;;;4.5;89
61571;BME280;47463;49.884;10.010;2022-11-11T19:50:01;103530;;;4.1;89
61571;BME280;47463;49.884;10.010;2022-11-11T19:55:01;103530;;;4.1;89
61571;BME280;47463;49.884;10.010;2022-11-11T20:00:01;103540.00000000001;;;4;89
61571;BME280;47463;49.884;10.010;2022-11-11T20:05:01;103530;;;3.8;89
61571;BME280;47463;49.884;10.010;2022-11-11T20:10:01;103540.00000000001;;;3.8;89
61571;BME280;47463;49.884;10.010;2022-11-11T20:15:01;103540.00000000001;;;3.7;89
61571;BME280;47463;49.884;10.010;2022-11-11T20:20:01;103540.00000000001;;;3.7;89
61571;BME280;47463;49.884;10.010;2022-11-11T20:25:01;103550;;;4;90
61571;BME280;47463;49.884;10.010;2022-11-11T20:30:01;103559.99999999999;;;4;90
61571;BME280;47463;49.884;10.010;2022-11-11T20:35:01;103570;;;3.9;90
61571;BME280;47463;49.884;10.010;2022-11-11T20:40:01;103570;;;3.8;90
61571;BME280;47463;49.884;10.010;2022-11-11T20:45:01;103559.99999999999;;;3.9;90
61571;BME280;47463;49.884;10.010;2022-11-11T20:50:01;103550;;;3.7;90
61571;BME280;47463;49.884;10.010;2022-11-11T20:55:01;103559.99999999999;;;3.3;90
61571;BME280;47463;49.884;10.010;2022-11-11T21:00:01;103550;;;3.3;90
61571;BME280;47463;49.884;10.010;2022-11-11T21:05:01;103550;;;3.2;90
61571;BME280;47463;49.884;10.010;2022-11-11T21:10:01;103559.99999999999;;;3.1;90
61571;BME280;47463;49.884;10.010;2022-11-11T21:15:01;103550;;;3.3;90
61571;BME280;47463;49.884;10.010;2022-11-11T21:20:01;103559.99999999999;;;4;90
61571;BME280;47463;49.884;10.010;2022-11-11T21:25:01;103550;;;4.1;90
61571;BME280;47463;49.884;10.010;2022-11-11T21:30:01;103559.99999999999;;;4.1;90
61571;BME280;47463;49.884;10.010;2022-11-11T21:35:01;103559.99999999999;;;4.2;90
61571;BME280;47463;49.884;10.010;2022-11-11T21:40:01;103559.99999999999;;;4.2;90
61571;BME280;47463;49.884;10.010;2022-11-11T21:45:01;103559.99999999999;;;4.3;90
61571;BME280;47463;49.884;10.010;2022-11-11T21:50:01;103559.99999999999;;;4.5;90
61571;BME280;47463;49.884;10.010;2022-11-11T21:55:01;103550;;;4.5;90
61571;BME280;47463;49.884;10.010;2022-11-11T22:00:01;103559.99999999999;;;4.4;90
61571;BME280;47463;49.884;10.010;2022-11-11T22:05:01;103570;;;4.4;90
61571;BME280;47463;49.884;10.010;2022-11-11T22:10:01;103559.99999999999;;;4.1;90
61571;BME280;47463;49.884;10.010;2022-11-11T22:15:01;103559.99999999999;;;4;90
61571;BME280;47463;49.884;10.010;2022-11-11T22:20:01;103570;;;4.2;90
61571;BME280;47463;49.884;10.010;2022-11-11T22:25:01;103570;;;4.3;90
61571;BME280;47463;49.884;10.010;2022-11-11T22:30:01;103580;;;4.2;90
61571;BME280;47463;49.884;10.010;2022-11-11T22:35:01;103570;;;4.3;90
61571;BME280;47463;49.884;10.010;2022-11-11T22:40:01;103559.99999999999;;;4.4;90
61571;BME280;47463;49.884;10.010;2022-11-11T22:45:01;103559.99999999999;;;4.4;90
61571;BME280;47463;49.884;10.010;2022-11-11T22:50:01;103550;;;4.4;90
61571;BME280;47463;49.884;10.010;2022-11-11T23:00:01;103559.99999999999;;;4.5;90
61571;BME280;47463;49.884;10.010;2022-11-11T23:05:01;103559.99999999999;;;4.6;90
61571;BME280;47463;49.884;10.010;2022-11-11T23:10:01;103550;;;4.6;90
61571;BME280;47463;49.884;10.010;2022-11-11T23:15:01;103559.99999999999;;;4.5;90
61571;BME280;47463;49.884;10.010;2022-11-11T23:20:01;103550;;;4.4;90
61571;BME280;47463;49.884;10.010;2022-11-11T23:25:01;103559.99999999999;;;4.4;90
61571;BME280;47463;49.884;10.010;2022-11-11T23:30:01;103540.00000000001;;;4.4;90
61571;BME280;47463;49.884;10.010;2022-11-11T23:35:01;103540.00000000001;;;4.4;90
61571;BME280;47463;49.884;10.010;2022-11-11T23:40:01;103550;;;4.4;90
61571;BME280;47463;49.884;10.010;2022-11-11T23:45:01;103550;;;4.4;90
61571;BME280;47463;49.884;10.010;2022-11-11T23:50:01;103550;;;4.4;90
61571;BME280;47463;49.884;10.010;2022-11-11T23:55:01;103550;;;4.4;90
